Time;durP1;ratioP1;P1;durP2;ratioP2;P2;SDS_P1;SDS_P2;PMS_P1;PMS_P2;Temp;Humidity;BMP_temperature;BMP_pressure;BME280_temperature;BME280_humidity;BME280_pressure;Samples;Min_cycle;Max_cycle;Signal;HPM_P1;HPM_P2
2023/12/27 00:00:34;;;;;;;4.50;2.42;;;;;;;;;;5074373;28;20434;-80
2023/12/27 00:03:00;;;;;;;4.35;2.85;;;;;;;;;;5074120;28;20391;-81
2023/12/27 00:05:26;;;;;;;3.40;2.65;;;;;;;;;;5074623;28;20426;-81
2023/12/27 00:07:52;;;;;;;3.05;2.75;;;;;;;;;;5075896;28;20380;-83
2023/12/27 00:10:18;;;;;;;5.72;2.80;;;;;;;;;;5074389;28;20388;-81
2023/12/27 00:12:44;;;;;;;3.78;2.75;;;;;;;;;;5074801;28;20407;-81
2023/12/27 00:15:10;;;;;;;7.40;3.23;;;;;;;;;;5074205;28;20376;-80
2023/12/27 00:17:36;;;;;;;5.10;4.38;;;;;;;;;;5073872;28;20936;-80
2023/12/27 00:20:03;;;;;;;4.13;2.93;;;;;;;;;;5073903;28;20878;-81
2023/12/27 00:22:29;;;;;;;4.70;3.72;;;;;;;;;;5076101;28;20783;-80
2023/12/27 00:24:55;;;;;;;4.07;3.20;;;;;;;;;;5094418;28;20469;-81
2023/12/27 00:27:21;;;;;;;4.63;3.33;;;;;;;;;;5094094;28;20464;-81
2023/12/27 00:29:47;;;;;;;5.25;3.28;;;;;;;;;;5094071;28;20404;-80
2023/12/27 00:32:15;;;;;;;5.25;4.20;;;;;;;;;;5094081;28;20402;-80
2023/12/27 00:34:41;;;;;;;5.75;4.07;;;;;;;;;;5093817;28;20410;-81
2023/12/27 00:37:08;;;;;;;4.20;3.80;;;;;;;;;;5093855;28;20480;-81
2023/12/27 00:39:34;;;;;;;5.20;3.80;;;;;;;;;;5093787;28;20386;-80
2023/12/27 00:42:00;;;;;;;5.55;4.00;;;;;;;;;;5093215;28;20424;-80
2023/12/27 00:44:26;;;;;;;5.57;4.00;;;;;;;;;;5093637;28;20927;-81
2023/12/27 00:46:52;;;;;;;4.53;3.85;;;;;;;;;;5093471;28;20427;-80
2023/12/27 00:49:18;;;;;;;5.83;3.87;;;;;;;;;;5093906;28;20385;-80
2023/12/27 00:51:44;;;;;;;5.88;3.80;;;;;;;;;;5093862;28;20409;-80
2023/12/27 00:54:10;;;;;;;6.80;4.20;;;;;;;;;;5093616;28;20839;-80
2023/12/27 00:56:37;;;;;;;4.40;3.85;;;;;;;;;;5093238;28;20708;-81
2023/12/27 00:59:03;;;;;;;4.03;3.50;;;;;;;;;;5093180;28;20381;-80
2023/12/27 01:01:30;;;;;;;6.93;4.68;;;;;;;;;;5094104;28;20386;-81
2023/12/27 01:03:56;;;;;;;5.57;3.63;;;;;;;;;;5093408;28;20496;-81
2023/12/27 01:06:22;;;;;;;5.93;4.60;;;;;;;;;;5075305;28;20386;-81
2023/12/27 01:08:48;;;;;;;5.35;4.00;;;;;;;;;;5095201;28;20386;-80
2023/12/27 01:11:14;;;;;;;5.57;4.10;;;;;;;;;;5096129;28;20422;-81
2023/12/27 01:13:40;;;;;;;5.88;3.80;;;;;;;;;;5094428;28;20366;-80
2023/12/27 01:16:06;;;;;;;5.20;4.03;;;;;;;;;;5093336;28;20412;-80
2023/12/27 01:18:32;;;;;;;5.00;3.70;;;;;;;;;;5093056;28;20829;-80
2023/12/27 01:20:58;;;;;;;4.70;3.72;;;;;;;;;;5075118;28;20389;-81
2023/12/27 01:23:24;;;;;;;5.15;3.80;;;;;;;;;;5094809;28;20720;-80
2023/12/27 01:25:50;;;;;;;4.88;3.72;;;;;;;;;;5093161;28;20386;-80
2023/12/27 01:28:16;;;;;;;4.85;3.90;;;;;;;;;;5092880;28;20855;-81
2023/12/27 01:30:42;;;;;;;5.43;3.72;;;;;;;;;;5095129;28;20398;-80
2023/12/27 01:33:09;;;;;;;5.10;3.90;;;;;;;;;;5097434;28;20882;-81
2023/12/27 01:35:34;;;;;;;4.10;3.60;;;;;;;;;;5090965;28;20425;-80
2023/12/27 01:38:01;;;;;;;5.18;3.67;;;;;;;;;;5076744;28;20375;-81
2023/12/27 01:40:27;;;;;;;5.50;3.50;;;;;;;;;;5076851;28;20371;-81
2023/12/27 01:42:53;;;;;;;4.45;3.65;;;;;;;;;;5058195;28;20936;-80
2023/12/27 01:45:19;;;;;;;5.40;3.57;;;;;;;;;;5076667;28;20421;-81
2023/12/27 01:47:46;;;;;;;5.00;3.70;;;;;;;;;;5058558;28;20384;-80
2023/12/27 01:50:13;;;;;;;5.72;4.18;;;;;;;;;;5076708;28;20383;-80
2023/12/27 01:52:40;;;;;;;4.70;3.90;;;;;;;;;;5076688;28;20383;-80
2023/12/27 01:55:07;;;;;;;4.93;3.63;;;;;;;;;;5077984;28;20436;-80
2023/12/27 01:57:33;;;;;;;5.20;3.78;;;;;;;;;;5078077;28;20375;-82
2023/12/27 02:00:02;;;;;;;6.40;3.80;;;;;;;;;;5078563;28;20924;-80
2023/12/27 02:02:28;;;;;;;4.35;3.45;;;;;;;;;;5077098;28;20385;-80
2023/12/27 02:04:54;;;;;;;4.40;3.63;;;;;;;;;;5076782;28;20379;-80
2023/12/27 02:07:20;;;;;;;4.35;3.42;;;;;;;;;;5076953;28;20467;-81
2023/12/27 02:09:46;;;;;;;5.20;3.58;;;;;;;;;;5077545;28;20394;-80
2023/12/27 02:12:23;;;;;;;4.07;3.38;;;;;;;;;;5059362;28;20407;-81
2023/12/27 02:14:49;;;;;;;4.77;3.47;;;;;;;;;;5077494;28;20902;-81
2023/12/27 02:17:15;;;;;;;5.15;3.58;;;;;;;;;;5077994;28;20456;-80
2023/12/27 02:19:41;;;;;;;3.88;3.28;;;;;;;;;;5088769;28;20416;-80
2023/12/27 02:22:07;;;;;;;4.10;3.40;;;;;;;;;;5096549;28;20382;-80
2023/12/27 02:24:36;;;;;;;5.97;3.70;;;;;;;;;;5096382;28;20765;-80
2023/12/27 02:27:03;;;;;;;5.38;3.15;;;;;;;;;;5096777;28;20370;-80
2023/12/27 02:29:29;;;;;;;3.67;3.17;;;;;;;;;;5096694;28;20709;-80
2023/12/27 02:31:55;;;;;;;3.85;2.92;;;;;;;;;;5096420;28;20410;-80
2023/12/27 02:34:21;;;;;;;4.35;3.08;;;;;;;;;;5097071;28;20393;-80
2023/12/27 02:36:47;;;;;;;3.72;3.20;;;;;;;;;;5097039;28;20427;-81
2023/12/27 02:39:13;;;;;;;4.85;3.50;;;;;;;;;;5096863;28;20381;-80
2023/12/27 02:41:39;;;;;;;5.15;3.13;;;;;;;;;;5097256;28;20410;-80
2023/12/27 02:44:05;;;;;;;6.33;2.83;;;;;;;;;;5097241;28;20918;-81
2023/12/27 02:46:33;;;;;;;4.85;3.03;;;;;;;;;;5095981;28;20378;-80
2023/12/27 02:48:59;;;;;;;4.45;2.60;;;;;;;;;;5095558;28;20465;-80
2023/12/27 02:51:25;;;;;;;3.53;2.80;;;;;;;;;;5095197;28;20509;-81
2023/12/27 02:53:51;;;;;;;4.13;2.78;;;;;;;;;;5095480;28;20385;-80
2023/12/27 02:56:18;;;;;;;4.10;2.72;;;;;;;;;;5077514;28;20382;-81
2023/12/27 02:58:44;;;;;;;3.65;2.35;;;;;;;;;;5095611;28;20851;-80
2023/12/27 03:01:10;;;;;;;5.28;3.10;;;;;;;;;;5096984;28;20495;-80
2023/12/27 03:03:36;;;;;;;4.63;3.03;;;;;;;;;;5095315;28;20489;-80
2023/12/27 03:06:02;;;;;;;4.38;3.10;;;;;;;;;;5096121;28;20382;-80
2023/12/27 03:08:28;;;;;;;4.47;2.88;;;;;;;;;;5095589;28;20804;-81
2023/12/27 03:10:55;;;;;;;3.40;3.00;;;;;;;;;;5096192;28;20434;-80
2023/12/27 03:13:21;;;;;;;4.00;2.97;;;;;;;;;;5077028;28;20393;-80
2023/12/27 03:15:47;;;;;;;4.60;2.83;;;;;;;;;;5095544;28;20401;-80
2023/12/27 03:18:14;;;;;;;2.80;2.60;;;;;;;;;;5093243;28;20729;-80
2023/12/27 03:20:40;;;;;;;3.92;2.58;;;;;;;;;;5074239;28;20403;-80
2023/12/27 03:23:06;;;;;;;4.35;2.70;;;;;;;;;;5074945;28;20407;-80
2023/12/27 03:25:32;;;;;;;3.13;2.50;;;;;;;;;;5074863;28;20403;-81
2023/12/27 03:27:58;;;;;;;3.97;2.70;;;;;;;;;;5075376;28;20737;-80
2023/12/27 03:30:24;;;;;;;3.97;2.70;;;;;;;;;;5074896;28;20396;-80
2023/12/27 03:32:50;;;;;;;5.22;2.78;;;;;;;;;;5074768;28;20376;-80
2023/12/27 03:35:16;;;;;;;4.03;2.60;;;;;;;;;;5075075;28;20388;-80
2023/12/27 03:37:42;;;;;;;5.38;2.60;;;;;;;;;;5075551;28;20422;-81
2023/12/27 03:40:08;;;;;;;3.75;2.65;;;;;;;;;;5075239;28;20367;-80
2023/12/27 03:42:34;;;;;;;3.45;2.92;;;;;;;;;;5075582;28;20419;-80
2023/12/27 03:45:00;;;;;;;3.57;2.60;;;;;;;;;;5074629;28;20436;-81
2023/12/27 03:47:26;;;;;;;3.20;2.33;;;;;;;;;;5074431;28;20380;-80
2023/12/27 03:49:52;;;;;;;5.32;2.78;;;;;;;;;;5074367;28;20367;-80
2023/12/27 03:52:18;;;;;;;3.65;2.83;;;;;;;;;;5074512;28;20404;-80
2023/12/27 03:54:44;;;;;;;5.18;2.80;;;;;;;;;;5073980;28;20382;-80
2023/12/27 03:57:10;;;;;;;2.73;2.20;;;;;;;;;;5073655;28;20475;-80
2023/12/27 03:59:37;;;;;;;3.80;2.22;;;;;;;;;;5074561;28;20427;-80
2023/12/27 04:02:03;;;;;;;3.65;2.40;;;;;;;;;;5074522;28;20429;-81
2023/12/27 04:04:29;;;;;;;5.75;2.65;;;;;;;;;;5074065;28;20471;-80
2023/12/27 04:06:55;;;;;;;2.50;2.20;;;;;;;;;;5073668;28;20403;-80
2023/12/27 04:09:21;;;;;;;2.45;2.20;;;;;;;;;;5076559;28;20884;-81
2023/12/27 04:11:47;;;;;;;3.47;2.50;;;;;;;;;;5096336;28;20402;-81
2023/12/27 04:14:17;;;;;;;4.70;2.77;;;;;;;;;;5098810;28;20374;-82
2023/12/27 04:16:44;;;;;;;4.50;3.10;;;;;;;;;;5104836;28;20384;-82
2023/12/27 04:19:10;;;;;;;6.18;4.30;;;;;;;;;;5098687;28;20453;-80
2023/12/27 04:21:36;;;;;;;8.43;5.00;;;;;;;;;;5097526;28;20421;-80
2023/12/27 04:24:02;;;;;;;9.97;6.50;;;;;;;;;;5097065;28;20461;-81
2023/12/27 04:26:28;;;;;;;8.15;6.07;;;;;;;;;;5096303;28;20408;-81
2023/12/27 04:28:54;;;;;;;7.10;4.90;;;;;;;;;;5097323;28;20386;-81
2023/12/27 04:31:20;;;;;;;6.03;4.20;;;;;;;;;;5096753;28;20410;-81
2023/12/27 04:33:46;;;;;;;6.07;4.22;;;;;;;;;;5097763;28;20374;-81
2023/12/27 04:36:12;;;;;;;4.85;2.78;;;;;;;;;;5095933;28;20438;-80
2023/12/27 04:38:38;;;;;;;4.18;2.63;;;;;;;;;;5095691;28;20870;-81
2023/12/27 04:41:08;;;;;;;2.63;2.42;;;;;;;;;;5095925;28;20458;-81
2023/12/27 04:43:34;;;;;;;3.70;2.42;;;;;;;;;;5096880;28;20375;-81
2023/12/27 04:46:00;;;;;;;3.75;2.42;;;;;;;;;;5095790;28;20389;-81
2023/12/27 04:48:26;;;;;;;2.77;2.40;;;;;;;;;;5095487;28;20460;-81
2023/12/27 04:50:52;;;;;;;2.55;1.95;;;;;;;;;;5095698;28;20810;-80
2023/12/27 04:53:18;;;;;;;3.30;2.00;;;;;;;;;;5094942;28;20373;-80
2023/12/27 04:55:44;;;;;;;3.75;2.28;;;;;;;;;;5093582;28;20402;-80
2023/12/27 04:58:09;;;;;;;3.13;2.47;;;;;;;;;;5095291;28;20366;-80
2023/12/27 05:00:35;;;;;;;2.20;2.00;;;;;;;;;;5094921;28;20374;-80
2023/12/27 05:03:01;;;;;;;3.03;2.30;;;;;;;;;;5095107;28;20370;-81
2023/12/27 05:05:27;;;;;;;2.70;2.40;;;;;;;;;;5093752;28;20826;-80
2023/12/27 05:07:54;;;;;;;5.03;2.38;;;;;;;;;;5094461;28;20460;-81
2023/12/27 05:10:20;;;;;;;4.28;2.15;;;;;;;;;;5094340;28;20438;-80
2023/12/27 05:12:46;;;;;;;3.75;2.38;;;;;;;;;;5094059;28;20374;-80
2023/12/27 05:15:12;;;;;;;2.97;1.95;;;;;;;;;;5094096;28;20804;-81
2023/12/27 05:17:38;;;;;;;3.37;2.27;;;;;;;;;;5095299;28;20381;-81
2023/12/27 05:20:04;;;;;;;4.47;2.28;;;;;;;;;;5078185;28;20381;-81
2023/12/27 05:22:33;;;;;;;3.77;2.43;;;;;;;;;;5096434;28;20389;-83
2023/12/27 05:25:00;;;;;;;2.83;2.03;;;;;;;;;;5096946;28;20402;-81
2023/12/27 05:27:26;;;;;;;2.60;2.10;;;;;;;;;;5091459;28;20376;-81
2023/12/27 05:29:52;;;;;;;3.33;2.30;;;;;;;;;;5076550;28;20444;-81
2023/12/27 05:32:18;;;;;;;3.40;2.20;;;;;;;;;;5073311;28;20453;-80
2023/12/27 05:34:44;;;;;;;4.03;2.70;;;;;;;;;;5072817;28;20794;-80
2023/12/27 05:37:10;;;;;;;2.45;2.25;;;;;;;;;;5074346;28;20431;-80
2023/12/27 05:39:36;;;;;;;3.83;2.42;;;;;;;;;;5073857;28;20394;-80
2023/12/27 05:42:02;;;;;;;4.05;2.25;;;;;;;;;;5073713;28;20412;-81
2023/12/27 05:44:28;;;;;;;2.85;2.25;;;;;;;;;;5074731;28;20379;-81
2023/12/27 05:46:54;;;;;;;3.50;2.30;;;;;;;;;;5077614;28;20384;-81
2023/12/27 05:49:20;;;;;;;3.67;2.55;;;;;;;;;;5077022;28;20403;-83
2023/12/27 05:51:46;;;;;;;3.80;2.00;;;;;;;;;;5076183;28;20425;-82
2023/12/27 05:54:13;;;;;;;3.65;2.28;;;;;;;;;;5075400;28;20372;-81
2023/12/27 05:56:40;;;;;;;2.97;2.15;;;;;;;;;;5074300;28;20378;-80
2023/12/27 05:59:06;;;;;;;2.45;2.05;;;;;;;;;;5075084;28;20383;-81
2023/12/27 06:01:32;;;;;;;3.40;1.70;;;;;;;;;;5074175;28;20433;-80
2023/12/27 06:04:00;;;;;;;3.10;2.17;;;;;;;;;;5073531;28;20375;-81
2023/12/27 06:06:26;;;;;;;3.50;2.30;;;;;;;;;;5073492;28;20376;-82
2023/12/27 06:08:53;;;;;;;4.67;2.40;;;;;;;;;;5075583;28;20405;-81
2023/12/27 06:11:19;;;;;;;3.25;2.22;;;;;;;;;;5076649;28;20403;-82
2023/12/27 06:13:45;;;;;;;3.70;2.40;;;;;;;;;;5076340;28;20375;-81
2023/12/27 06:16:14;;;;;;;2.88;2.40;;;;;;;;;;5077042;28;20923;-81
2023/12/27 06:18:43;;;;;;;2.90;2.13;;;;;;;;;;5082511;28;20383;-82
2023/12/27 06:21:10;;;;;;;3.97;2.00;;;;;;;;;;5080430;28;20462;-80
2023/12/27 06:23:36;;;;;;;4.90;2.75;;;;;;;;;;5080524;28;20379;-81
2023/12/27 06:26:02;;;;;;;3.88;2.30;;;;;;;;;;5080557;28;20733;-81
2023/12/27 06:28:28;;;;;;;4.43;2.47;;;;;;;;;;5079707;28;20380;-81
2023/12/27 06:30:54;;;;;;;2.35;2.10;;;;;;;;;;5079198;28;20485;-81
2023/12/27 06:33:20;;;;;;;2.85;2.20;;;;;;;;;;5080020;28;20387;-81
2023/12/27 06:35:46;;;;;;;2.58;2.33;;;;;;;;;;5080713;28;20386;-81
2023/12/27 06:38:12;;;;;;;4.97;2.57;;;;;;;;;;5080006;28;20733;-81
2023/12/27 06:40:38;;;;;;;3.20;2.33;;;;;;;;;;5077593;28;20464;-80
2023/12/27 06:43:04;;;;;;;3.05;2.20;;;;;;;;;;5077326;28;20379;-80
2023/12/27 06:45:30;;;;;;;2.72;2.35;;;;;;;;;;5077739;28;20374;-81
2023/12/27 06:47:56;;;;;;;4.25;2.95;;;;;;;;;;5077905;28;20375;-80
2023/12/27 06:50:22;;;;;;;3.80;2.30;;;;;;;;;;5059750;28;20437;-80
2023/12/27 06:52:49;;;;;;;3.45;2.45;;;;;;;;;;5077901;28;20422;-82
2023/12/27 06:55:15;;;;;;;3.13;2.60;;;;;;;;;;5078290;28;20435;-80
2023/12/27 06:57:41;;;;;;;3.10;2.50;;;;;;;;;;5079073;28;20380;-81
2023/12/27 07:00:08;;;;;;;2.80;2.30;;;;;;;;;;5078396;28;20776;-81
2023/12/27 07:02:34;;;;;;;2.83;2.20;;;;;;;;;;5078632;28;20450;-81
2023/12/27 07:05:00;;;;;;;3.43;2.13;;;;;;;;;;5078485;28;20436;-81
2023/12/27 07:07:26;;;;;;;3.03;2.10;;;;;;;;;;5060200;28;20843;-80
2023/12/27 07:09:52;;;;;;;4.28;2.47;;;;;;;;;;5079268;28;20845;-81
2023/12/27 07:12:18;;;;;;;4.30;2.60;;;;;;;;;;5078540;28;20488;-81
2023/12/27 07:14:44;;;;;;;3.13;2.45;;;;;;;;;;5077869;28;20880;-82
2023/12/27 07:17:10;;;;;;;3.13;2.22;;;;;;;;;;5077562;28;20376;-81
2023/12/27 07:19:36;;;;;;;2.95;2.38;;;;;;;;;;5077458;28;20383;-81
2023/12/27 07:22:02;;;;;;;4.82;2.65;;;;;;;;;;5077038;28;20864;-80
2023/12/27 07:24:29;;;;;;;3.33;2.40;;;;;;;;;;5076004;28;20467;-81
2023/12/27 07:26:55;;;;;;;3.17;2.10;;;;;;;;;;5075784;28;20376;-80
2023/12/27 07:29:21;;;;;;;3.80;2.15;;;;;;;;;;5075271;28;20387;-81
2023/12/27 07:31:47;;;;;;;3.35;2.30;;;;;;;;;;5076264;28;20407;-81
2023/12/27 07:34:15;;;;;;;3.40;2.33;;;;;;;;;;5075711;28;20372;-80
2023/12/27 07:36:41;;;;;;;3.72;2.70;;;;;;;;;;5057199;28;20467;-80
2023/12/27 07:39:09;;;;;;;2.90;2.58;;;;;;;;;;5075194;28;20930;-80
2023/12/27 07:41:35;;;;;;;4.15;3.40;;;;;;;;;;5075233;28;20451;-80
2023/12/27 07:44:01;;;;;;;3.40;3.10;;;;;;;;;;5074984;28;20853;-81
2023/12/27 07:46:27;;;;;;;3.78;2.97;;;;;;;;;;5074410;28;20407;-80
2023/12/27 07:48:54;;;;;;;5.07;3.20;;;;;;;;;;5075108;28;20430;-80
2023/12/27 07:51:20;;;;;;;4.63;3.30;;;;;;;;;;5076631;28;20474;-81
2023/12/27 07:53:50;;;;;;;3.13;2.65;;;;;;;;;;5059123;28;20734;-81
2023/12/27 07:56:18;;;;;;;3.72;2.42;;;;;;;;;;5076334;28;20376;-80
2023/12/27 07:58:44;;;;;;;3.58;2.60;;;;;;;;;;5076029;28;20380;-80
2023/12/27 08:01:10;;;;;;;3.20;2.67;;;;;;;;;;5075561;28;20388;-80
2023/12/27 08:03:37;;;;;;;4.00;3.20;;;;;;;;;;5075658;28;20474;-81
2023/12/27 08:06:03;;;;;;;5.03;3.15;;;;;;;;;;5077518;28;20402;-82
2023/12/27 08:08:29;;;;;;;4.22;3.22;;;;;;;;;;5076595;28;20819;-81
2023/12/27 08:10:55;;;;;;;4.47;3.60;;;;;;;;;;5075810;28;20404;-82
2023/12/27 08:13:21;;;;;;;6.80;5.05;;;;;;;;;;5075621;28;21005;-81
2023/12/27 08:15:47;;;;;;;12.93;10.82;;;;;;;;;;5076563;28;20502;-81
2023/12/27 08:18:12;;;;;;;16.95;13.55;;;;;;;;;;5074348;28;20379;-81
2023/12/27 08:20:39;;;;;;;15.32;13.68;;;;;;;;;;5075224;28;20769;-81
2023/12/27 08:23:06;;;;;;;20.45;14.43;;;;;;;;;;5077593;28;20380;-81
2023/12/27 08:25:33;;;;;;;19.83;14.02;;;;;;;;;;5076240;28;20508;-81
2023/12/27 08:28:00;;;;;;;19.70;11.93;;;;;;;;;;5076726;28;20376;-81
2023/12/27 08:30:27;;;;;;;18.60;11.35;;;;;;;;;;5074471;28;20379;-81
2023/12/27 08:32:53;;;;;;;18.92;11.68;;;;;;;;;;5074353;28;20371;-81
2023/12/27 08:35:19;;;;;;;14.60;8.68;;;;;;;;;;5074613;28;20383;-81
2023/12/27 08:37:45;;;;;;;13.30;8.43;;;;;;;;;;5073791;28;20445;-81
2023/12/27 08:40:11;;;;;;;13.95;7.63;;;;;;;;;;5073670;28;20845;-80
2023/12/27 08:42:37;;;;;;;13.32;8.32;;;;;;;;;;5073767;28;20407;-81
2023/12/27 08:45:04;;;;;;;12.82;7.47;;;;;;;;;;5073813;28;20383;-80
2023/12/27 08:47:30;;;;;;;14.40;7.75;;;;;;;;;;5073701;28;20749;-80
2023/12/27 08:49:56;;;;;;;14.73;8.15;;;;;;;;;;5075382;28;20392;-81
2023/12/27 08:52:22;;;;;;;11.57;7.53;;;;;;;;;;5073269;28;20436;-81
2023/12/27 08:54:48;;;;;;;10.88;6.75;;;;;;;;;;5075227;28;20738;-81
2023/12/27 08:57:14;;;;;;;13.93;7.32;;;;;;;;;;5073292;28;20379;-81
2023/12/27 08:59:40;;;;;;;16.92;9.63;;;;;;;;;;5073499;28;20379;-81
2023/12/27 09:02:06;;;;;;;14.98;8.82;;;;;;;;;;5073669;28;20376;-81
2023/12/27 09:04:32;;;;;;;14.43;7.73;;;;;;;;;;5075044;28;20403;-82
2023/12/27 09:06:58;;;;;;;31.13;16.63;;;;;;;;;;5075556;28;20380;-81
2023/12/27 09:09:24;;;;;;;21.02;12.30;;;;;;;;;;5075105;28;20384;-81
2023/12/27 09:11:50;;;;;;;13.47;9.40;;;;;;;;;;5074876;28;20470;-82
2023/12/27 09:14:16;;;;;;;14.05;9.85;;;;;;;;;;5075794;28;20421;-81
2023/12/27 09:16:42;;;;;;;15.38;10.35;;;;;;;;;;5075885;28;20376;-83
2023/12/27 09:19:08;;;;;;;15.48;10.40;;;;;;;;;;5074124;28;20383;-81
2023/12/27 09:21:34;;;;;;;18.17;12.03;;;;;;;;;;5073330;28;20376;-81
2023/12/27 09:24:00;;;;;;;20.60;13.20;;;;;;;;;;5072710;28;20376;-81
2023/12/27 09:26:26;;;;;;;18.02;11.98;;;;;;;;;;5074108;28;20388;-82
2023/12/27 09:28:52;;;;;;;18.95;12.02;;;;;;;;;;5073643;28;20372;-81
2023/12/27 09:31:18;;;;;;;16.75;11.20;;;;;;;;;;5073058;28;20415;-81
2023/12/27 09:33:45;;;;;;;18.73;11.80;;;;;;;;;;5073860;28;20374;-83
2023/12/27 09:36:12;;;;;;;20.70;11.75;;;;;;;;;;5074558;28;20806;-81
2023/12/27 09:38:38;;;;;;;21.40;13.48;;;;;;;;;;5074830;28;20841;-81
2023/12/27 09:41:05;;;;;;;21.42;13.00;;;;;;;;;;5074185;28;20403;-81
2023/12/27 09:43:33;;;;;;;20.27;12.55;;;;;;;;;;5075003;28;20871;-82
2023/12/27 09:46:00;;;;;;;18.38;12.90;;;;;;;;;;5073845;28;20414;-81
2023/12/27 09:48:28;;;;;;;17.88;12.18;;;;;;;;;;5073856;28;20932;-81
2023/12/27 09:50:55;;;;;;;16.58;11.23;;;;;;;;;;5074522;28;20407;-81
2023/12/27 09:53:21;;;;;;;21.88;14.63;;;;;;;;;;5077906;28;20387;-81
2023/12/27 09:55:47;;;;;;;36.08;21.30;;;;;;;;;;5078513;28;20376;-82
2023/12/27 09:58:13;;;;;;;71.57;36.63;;;;;;;;;;5078594;28;20371;-82
2023/12/27 10:00:43;;;;;;;81.22;42.35;;;;;;;;;;5078320;28;20814;-81
2023/12/27 10:03:13;;;;;;;70.68;42.50;;;;;;;;;;5077871;28;20379;-81
2023/12/27 10:05:55;;;;;;;18.25;13.02;;;;;;;;;;5076746;28;20376;-81
2023/12/27 10:08:21;;;;;;;19.13;13.38;;;;;;;;;;5076223;28;20739;-81
2023/12/27 10:10:47;;;;;;;29.60;17.35;;;;;;;;;;5075763;28;20454;-81
2023/12/27 10:13:14;;;;;;;19.35;13.20;;;;;;;;;;5075981;28;20421;-82
2023/12/27 10:15:40;;;;;;;18.20;10.93;;;;;;;;;;5076084;28;20382;-81
2023/12/27 10:18:08;;;;;;;20.27;11.93;;;;;;;;;;5075858;28;20399;-81
2023/12/27 10:20:36;;;;;;;18.05;11.70;;;;;;;;;;5076062;28;20368;-82
2023/12/27 10:23:03;;;;;;;20.63;11.20;;;;;;;;;;5076076;28;20455;-81
2023/12/27 10:25:29;;;;;;;15.07;11.15;;;;;;;;;;5075543;28;20857;-81
2023/12/27 10:27:55;;;;;;;17.10;10.53;;;;;;;;;;5075977;28;20399;-81
2023/12/27 10:30:21;;;;;;;16.83;10.82;;;;;;;;;;5076214;28;20405;-81
2023/12/27 10:33:00;;;;;;;16.85;10.57;;;;;;;;;;5076788;28;20411;-81
2023/12/27 10:35:35;;;;;;;15.05;9.88;;;;;;;;;;5076239;28;20923;-81
2023/12/27 10:38:02;;;;;;;14.13;10.13;;;;;;;;;;5075981;28;20379;-81
2023/12/27 10:40:29;;;;;;;13.57;9.52;;;;;;;;;;5076032;28;20426;-82
2023/12/27 10:42:55;;;;;;;15.23;9.25;;;;;;;;;;5075288;28;20411;-81
2023/12/27 10:45:21;;;;;;;14.98;9.38;;;;;;;;;;5075717;28;20395;-82
2023/12/27 10:47:51;;;;;;;14.85;9.82;;;;;;;;;;5076374;28;20441;-82
2023/12/27 10:50:19;;;;;;;12.77;9.02;;;;;;;;;;5076102;28;20752;-82
2023/12/27 10:52:47;;;;;;;10.93;8.73;;;;;;;;;;5077399;28;20403;-82
2023/12/27 10:55:16;;;;;;;12.35;9.77;;;;;;;;;;5078115;28;20372;-82
2023/12/27 10:57:42;;;;;;;12.63;9.02;;;;;;;;;;5076804;28;20411;-82
2023/12/27 11:00:09;;;;;;;9.77;8.50;;;;;;;;;;5077936;28;20402;-81
2023/12/27 11:02:36;;;;;;;11.27;8.63;;;;;;;;;;5077710;28;20379;-82
2023/12/27 11:05:03;;;;;;;11.13;8.80;;;;;;;;;;5077908;28;20379;-82
2023/12/27 11:07:31;;;;;;;10.75;7.90;;;;;;;;;;5078852;28;20402;-82
2023/12/27 11:09:59;;;;;;;9.80;7.60;;;;;;;;;;5078576;28;20383;-82
2023/12/27 11:12:27;;;;;;;10.05;7.78;;;;;;;;;;5078191;28;20423;-82
2023/12/27 11:14:53;;;;;;;9.80;8.43;;;;;;;;;;5078551;28;20772;-83
2023/12/27 11:17:20;;;;;;;8.43;7.63;;;;;;;;;;5078149;28;20394;-82
2023/12/27 11:19:47;;;;;;;9.50;7.78;;;;;;;;;;5077713;28;20422;-82
2023/12/27 11:22:13;;;;;;;9.40;8.30;;;;;;;;;;5077298;28;20903;-82
2023/12/27 11:24:39;;;;;;;9.73;7.75;;;;;;;;;;5077027;28;20384;-83
2023/12/27 11:27:05;;;;;;;10.80;8.43;;;;;;;;;;5077115;28;20462;-82
2023/12/27 11:29:32;;;;;;;9.02;8.13;;;;;;;;;;5076833;28;20418;-82
2023/12/27 11:31:58;;;;;;;9.25;8.35;;;;;;;;;;5077183;28;20744;-82
2023/12/27 11:34:25;;;;;;;9.68;8.18;;;;;;;;;;5077057;28;20368;-82
2023/12/27 11:36:51;;;;;;;8.48;7.75;;;;;;;;;;5076711;28;20376;-82
2023/12/27 11:39:21;;;;;;;9.32;8.38;;;;;;;;;;5076859;28;20379;-83
2023/12/27 11:41:48;;;;;;;8.88;8.00;;;;;;;;;;5076701;28;20896;-82
2023/12/27 11:44:17;;;;;;;9.10;8.30;;;;;;;;;;5059193;28;20387;-84
2023/12/27 11:46:44;;;;;;;9.20;8.40;;;;;;;;;;5078386;28;20521;-82
2023/12/27 11:49:17;;;;;;;10.05;8.27;;;;;;;;;;5076597;28;20392;-81
2023/12/27 11:51:43;;;;;;;10.17;9.20;;;;;;;;;;5075803;28;20396;-82
2023/12/27 11:54:20;;;;;;;9.40;8.40;;;;;;;;;;5078480;28;20382;-81
2023/12/27 11:56:46;;;;;;;15.13;13.63;;;;;;;;;;5078014;28;20372;-83
2023/12/27 11:59:12;;;;;;;9.15;8.25;;;;;;;;;;5082050;28;20376;-81
2023/12/27 12:01:38;;;;;;;9.25;8.38;;;;;;;;;;5065306;28;20380;-83
2023/12/27 12:04:10;;;;;;;8.95;8.02;;;;;;;;;;5080355;28;20380;-83
2023/12/27 12:06:56;;;;;;;8.77;7.97;;;;;;;;;;5079606;28;20955;-83
2023/12/27 12:09:28;;;;;;;9.05;8.15;;;;;;;;;;5050990;28;20406;-82
2023/12/27 12:11:54;;;;;;;9.02;8.23;;;;;;;;;;5084144;28;20408;-83
2023/12/27 12:14:23;;;;;;;9.27;8.38;;;;;;;;;;5080781;28;20376;-82
2023/12/27 12:16:50;;;;;;;9.05;8.25;;;;;;;;;;5080522;28;20422;-83
2023/12/27 12:19:18;;;;;;;10.52;9.07;;;;;;;;;;5079678;28;20435;-83
2023/12/27 12:21:45;;;;;;;9.37;8.47;;;;;;;;;;5076359;28;20849;-83
2023/12/27 12:24:13;;;;;;;9.27;8.48;;;;;;;;;;5077046;28;20873;-83
2023/12/27 12:26:39;;;;;;;9.30;8.50;;;;;;;;;;5078022;28;20384;-82
2023/12/27 12:29:08;;;;;;;9.02;8.13;;;;;;;;;;5076181;28;20403;-82
2023/12/27 12:31:34;;;;;;;9.32;8.40;;;;;;;;;;5076517;28;20498;-81
2023/12/27 12:34:00;;;;;;;8.95;8.05;;;;;;;;;;5076266;28;20414;-83
2023/12/27 12:36:26;;;;;;;8.80;8.00;;;;;;;;;;5076665;28;20371;-83
2023/12/27 12:38:53;;;;;;;9.13;8.23;;;;;;;;;;5075927;28;20379;-82
2023/12/27 12:41:19;;;;;;;8.95;8.10;;;;;;;;;;5079804;28;20416;-82
2023/12/27 12:43:45;;;;;;;8.73;7.95;;;;;;;;;;5058061;28;20396;-82
2023/12/27 12:46:13;;;;;;;8.57;7.82;;;;;;;;;;5076544;28;20390;-81
2023/12/27 12:48:39;;;;;;;9.50;8.50;;;;;;;;;;5075762;28;20376;-81
2023/12/27 12:51:13;;;;;;;9.35;8.40;;;;;;;;;;5078214;28;20409;-82
2023/12/27 12:53:41;;;;;;;8.98;8.07;;;;;;;;;;5075410;28;20408;-82
2023/12/27 12:56:07;;;;;;;9.63;8.73;;;;;;;;;;5076456;28;20455;-82
2023/12/27 12:58:34;;;;;;;8.82;8.05;;;;;;;;;;5076159;28;20402;-81
2023/12/27 13:01:00;;;;;;;9.97;8.17;;;;;;;;;;5080973;28;20888;-83
2023/12/27 13:03:27;;;;;;;8.55;7.65;;;;;;;;;;5083317;28;20386;-82
2023/12/27 13:05:53;;;;;;;9.10;8.20;;;;;;;;;;5083317;28;20754;-83
2023/12/27 13:08:19;;;;;;;9.18;8.27;;;;;;;;;;5097301;28;20403;-82
2023/12/27 13:10:46;;;;;;;9.07;8.27;;;;;;;;;;5082090;28;20819;-83
2023/12/27 13:13:15;;;;;;;7.60;7.00;;;;;;;;;;5082942;28;20433;-83
2023/12/27 13:15:42;;;;;;;9.82;8.20;;;;;;;;;;5083206;28;20382;-83
2023/12/27 13:18:08;;;;;;;9.20;8.30;;;;;;;;;;5083218;28;20404;-82
2023/12/27 13:20:34;;;;;;;8.38;7.63;;;;;;;;;;5082243;28;20383;-83
2023/12/27 13:23:00;;;;;;;7.93;7.22;;;;;;;;;;5083026;28;20387;-83
2023/12/27 13:25:26;;;;;;;8.80;8.00;;;;;;;;;;5082619;28;20383;-83
2023/12/27 13:27:52;;;;;;;8.43;7.63;;;;;;;;;;5080605;28;20387;-83
2023/12/27 13:30:18;;;;;;;8.80;8.00;;;;;;;;;;5080755;28;20380;-83
2023/12/27 13:32:44;;;;;;;7.53;6.93;;;;;;;;;;5079961;28;20399;-84
2023/12/27 13:35:10;;;;;;;7.80;7.10;;;;;;;;;;5083067;28;20376;-82
2023/12/27 13:37:36;;;;;;;8.32;7.45;;;;;;;;;;5080817;28;20383;-82
2023/12/27 13:40:03;;;;;;;8.45;7.35;;;;;;;;;;5079781;28;20372;-82
2023/12/27 13:42:30;;;;;;;8.30;7.50;;;;;;;;;;5078924;28;20933;-82
2023/12/27 13:44:56;;;;;;;9.00;7.55;;;;;;;;;;5077240;28;20391;-82
2023/12/27 13:47:22;;;;;;;8.70;7.72;;;;;;;;;;5078073;28;20412;-82
2023/12/27 13:49:50;;;;;;;7.47;6.82;;;;;;;;;;5076490;28;20384;-83
2023/12/27 13:52:16;;;;;;;8.38;7.50;;;;;;;;;;5075434;28;20399;-81
2023/12/27 13:54:42;;;;;;;7.68;6.88;;;;;;;;;;5058204;28;21138;-82
2023/12/27 13:57:08;;;;;;;8.00;7.13;;;;;;;;;;5077271;28;20876;-82
2023/12/27 13:59:34;;;;;;;8.43;7.32;;;;;;;;;;5077886;28;20392;-82
2023/12/27 14:02:00;;;;;;;8.20;7.33;;;;;;;;;;5078449;28;20418;-82
2023/12/27 14:04:26;;;;;;;8.27;7.47;;;;;;;;;;5059725;28;20426;-82
2023/12/27 14:06:53;;;;;;;8.32;7.53;;;;;;;;;;5078655;28;20411;-82
2023/12/27 14:09:19;;;;;;;8.15;7.32;;;;;;;;;;5077407;28;20394;-82
2023/12/27 14:11:45;;;;;;;7.55;6.78;;;;;;;;;;5075878;28;20431;-82
2023/12/27 14:14:11;;;;;;;7.38;6.78;;;;;;;;;;5078262;28;20387;-83
2023/12/27 14:16:41;;;;;;;7.50;6.80;;;;;;;;;;5079562;28;20379;-82
2023/12/27 14:19:08;;;;;;;7.30;6.60;;;;;;;;;;5079203;28;20380;-83
2023/12/27 14:21:35;;;;;;;7.65;6.95;;;;;;;;;;5079477;28;20394;-82
2023/12/27 14:24:03;;;;;;;6.60;6.00;;;;;;;;;;5079160;28;20405;-83
2023/12/27 14:26:29;;;;;;;6.95;6.28;;;;;;;;;;5077096;28;20466;-83
2023/12/27 14:28:55;;;;;;;7.35;6.28;;;;;;;;;;5078253;28;20475;-82
2023/12/27 14:31:21;;;;;;;6.95;6.32;;;;;;;;;;5077793;28;20873;-82
2023/12/27 14:33:47;;;;;;;6.95;6.25;;;;;;;;;;5077455;28;20380;-82